sensor_id;sensor_type;location;lat;lon;timestamp;P1;durP1;ratioP1;P2;durP2;ratioP2
54428;SDS011;40337;52.978;6.310;2023-12-04T00:01:33;33.92;;;26.10;;
54428;SDS011;40337;52.978;6.310;2023-12-04T00:03:59;33.75;;;25.35;;
54428;SDS011;40337;52.978;6.310;2023-12-04T00:06:24;32.08;;;23.35;;
54428;SDS011;40337;52.978;6.310;2023-12-04T00:08:50;34.08;;;25.40;;
54428;SDS011;40337;52.978;6.310;2023-12-04T00:11:16;31.95;;;24.88;;
54428;SDS011;40337;52.978;6.310;2023-12-04T00:13:41;31.70;;;24.13;;
54428;SDS011;40337;52.978;6.310;2023-12-04T00:16:07;33.00;;;24.58;;
54428;SDS011;40337;52.978;6.310;2023-12-04T00:18:33;33.40;;;24.90;;
54428;SDS011;40337;52.978;6.310;2023-12-04T00:20:59;32.10;;;25.25;;
54428;SDS011;40337;52.978;6.310;2023-12-04T00:23:24;29.77;;;23.33;;
54428;SDS011;40337;52.978;6.310;2023-12-04T00:25:50;29.90;;;23.98;;
54428;SDS011;40337;52.978;6.310;2023-12-04T00:28:16;34.45;;;25.20;;
54428;SDS011;40337;52.978;6.310;2023-12-04T00:30:41;33.10;;;24.58;;
54428;SDS011;40337;52.978;6.310;2023-12-04T00:33:07;30.15;;;23.55;;
54428;SDS011;40337;52.978;6.310;2023-12-04T00:35:33;32.70;;;24.65;;
54428;SDS011;40337;52.978;6.310;2023-12-04T00:37:58;30.80;;;24.10;;
54428;SDS011;40337;52.978;6.310;2023-12-04T00:40:24;32.22;;;24.88;;
54428;SDS011;40337;52.978;6.310;2023-12-04T00:42:50;32.97;;;24.60;;
54428;SDS011;40337;52.978;6.310;2023-12-04T00:45:15;30.90;;;24.02;;
54428;SDS011;40337;52.978;6.310;2023-12-04T00:47:41;32.45;;;25.10;;
54428;SDS011;40337;52.978;6.310;2023-12-04T00:50:07;33.35;;;24.35;;
54428;SDS011;40337;52.978;6.310;2023-12-04T00:52:33;32.47;;;25.23;;
54428;SDS011;40337;52.978;6.310;2023-12-04T00:54:58;28.33;;;22.58;;
54428;SDS011;40337;52.978;6.310;2023-12-04T00:57:24;31.67;;;24.63;;
54428;SDS011;40337;52.978;6.310;2023-12-04T00:59:50;28.50;;;22.42;;
54428;SDS011;40337;52.978;6.310;2023-12-04T01:02:16;28.98;;;22.50;;
54428;SDS011;40337;52.978;6.310;2023-12-04T01:04:41;29.83;;;23.38;;
54428;SDS011;40337;52.978;6.310;2023-12-04T01:07:07;27.27;;;22.05;;
54428;SDS011;40337;52.978;6.310;2023-12-04T01:09:36;28.15;;;22.98;;
54428;SDS011;40337;52.978;6.310;2023-12-04T01:12:02;29.00;;;22.52;;
54428;SDS011;40337;52.978;6.310;2023-12-04T01:14:28;31.35;;;24.13;;
54428;SDS011;40337;52.978;6.310;2023-12-04T01:16:55;27.45;;;23.00;;
54428;SDS011;40337;52.978;6.310;2023-12-04T01:19:21;29.38;;;22.45;;
54428;SDS011;40337;52.978;6.310;2023-12-04T01:21:46;29.45;;;24.00;;
54428;SDS011;40337;52.978;6.310;2023-12-04T01:24:13;31.95;;;23.83;;
54428;SDS011;40337;52.978;6.310;2023-12-04T01:26:40;27.60;;;22.30;;
54428;SDS011;40337;52.978;6.310;2023-12-04T01:29:05;28.33;;;22.85;;
54428;SDS011;40337;52.978;6.310;2023-12-04T01:31:31;30.35;;;23.13;;
54428;SDS011;40337;52.978;6.310;2023-12-04T01:33:57;28.38;;;22.92;;
54428;SDS011;40337;52.978;6.310;2023-12-04T01:36:23;27.83;;;23.02;;
54428;SDS011;40337;52.978;6.310;2023-12-04T01:38:48;31.75;;;24.08;;
54428;SDS011;40337;52.978;6.310;2023-12-04T01:41:14;27.23;;;22.42;;
54428;SDS011;40337;52.978;6.310;2023-12-04T01:43:40;30.20;;;23.15;;
54428;SDS011;40337;52.978;6.310;2023-12-04T01:46:05;27.00;;;21.83;;
54428;SDS011;40337;52.978;6.310;2023-12-04T01:48:32;30.17;;;23.73;;
54428;SDS011;40337;52.978;6.310;2023-12-04T01:50:58;31.42;;;24.30;;
54428;SDS011;40337;52.978;6.310;2023-12-04T01:53:28;30.75;;;23.88;;
54428;SDS011;40337;52.978;6.310;2023-12-04T01:55:53;30.58;;;23.65;;
54428;SDS011;40337;52.978;6.310;2023-12-04T01:58:19;31.40;;;24.25;;
54428;SDS011;40337;52.978;6.310;2023-12-04T02:00:45;33.75;;;25.27;;
54428;SDS011;40337;52.978;6.310;2023-12-04T02:03:11;28.73;;;22.75;;
54428;SDS011;40337;52.978;6.310;2023-12-04T02:05:37;32.08;;;24.58;;
54428;SDS011;40337;52.978;6.310;2023-12-04T02:08:04;33.70;;;25.55;;
54428;SDS011;40337;52.978;6.310;2023-12-04T02:10:31;37.83;;;25.70;;
54428;SDS011;40337;52.978;6.310;2023-12-04T02:12:56;33.85;;;24.33;;
54428;SDS011;40337;52.978;6.310;2023-12-04T02:15:23;31.25;;;23.48;;
54428;SDS011;40337;52.978;6.310;2023-12-04T02:17:49;33.17;;;25.42;;
54428;SDS011;40337;52.978;6.310;2023-12-04T02:20:15;32.83;;;25.73;;
54428;SDS011;40337;52.978;6.310;2023-12-04T02:22:41;34.60;;;26.33;;
54428;SDS011;40337;52.978;6.310;2023-12-04T02:25:07;32.95;;;26.48;;
54428;SDS011;40337;52.978;6.310;2023-12-04T02:27:38;34.90;;;26.80;;
54428;SDS011;40337;52.978;6.310;2023-12-04T02:30:10;32.08;;;25.83;;
54428;SDS011;40337;52.978;6.310;2023-12-04T02:32:38;31.48;;;24.95;;
54428;SDS011;40337;52.978;6.310;2023-12-04T02:35:10;34.75;;;26.23;;
54428;SDS011;40337;52.978;6.310;2023-12-04T02:37:37;30.92;;;24.45;;
54428;SDS011;40337;52.978;6.310;2023-12-04T02:40:04;35.38;;;26.77;;
54428;SDS011;40337;52.978;6.310;2023-12-04T02:42:31;33.42;;;25.38;;
54428;SDS011;40337;52.978;6.310;2023-12-04T02:44:57;33.25;;;26.13;;
54428;SDS011;40337;52.978;6.310;2023-12-04T02:47:23;33.30;;;25.55;;
54428;SDS011;40337;52.978;6.310;2023-12-04T02:49:49;33.50;;;25.13;;
54428;SDS011;40337;52.978;6.310;2023-12-04T02:52:14;31.33;;;25.38;;
54428;SDS011;40337;52.978;6.310;2023-12-04T02:54:40;31.58;;;24.05;;
54428;SDS011;40337;52.978;6.310;2023-12-04T02:57:06;33.58;;;25.38;;
54428;SDS011;40337;52.978;6.310;2023-12-04T02:59:31;31.40;;;24.60;;
54428;SDS011;40337;52.978;6.310;2023-12-04T03:01:57;33.13;;;25.45;;
54428;SDS011;40337;52.978;6.310;2023-12-04T03:04:23;33.47;;;26.25;;
54428;SDS011;40337;52.978;6.310;2023-12-04T03:06:49;32.22;;;24.48;;
54428;SDS011;40337;52.978;6.310;2023-12-04T03:09:14;31.73;;;24.42;;
54428;SDS011;40337;52.978;6.310;2023-12-04T03:11:40;31.33;;;24.02;;
54428;SDS011;40337;52.978;6.310;2023-12-04T03:14:06;31.25;;;23.70;;
54428;SDS011;40337;52.978;6.310;2023-12-04T03:16:32;32.70;;;25.23;;
54428;SDS011;40337;52.978;6.310;2023-12-04T03:18:58;30.42;;;23.98;;
54428;SDS011;40337;52.978;6.310;2023-12-04T03:21:23;30.17;;;23.17;;
54428;SDS011;40337;52.978;6.310;2023-12-04T03:23:49;32.83;;;24.73;;
54428;SDS011;40337;52.978;6.310;2023-12-04T03:26:15;29.00;;;22.60;;
54428;SDS011;40337;52.978;6.310;2023-12-04T03:28:41;31.05;;;24.33;;
54428;SDS011;40337;52.978;6.310;2023-12-04T03:31:06;32.03;;;23.48;;
54428;SDS011;40337;52.978;6.310;2023-12-04T03:33:32;33.58;;;24.45;;
54428;SDS011;40337;52.978;6.310;2023-12-04T03:36:01;30.92;;;23.58;;
54428;SDS011;40337;52.978;6.310;2023-12-04T03:38:27;29.65;;;22.75;;
54428;SDS011;40337;52.978;6.310;2023-12-04T03:40:52;29.27;;;22.63;;
54428;SDS011;40337;52.978;6.310;2023-12-04T03:43:18;28.83;;;22.88;;
54428;SDS011;40337;52.978;6.310;2023-12-04T03:45:43;33.20;;;24.30;;
54428;SDS011;40337;52.978;6.310;2023-12-04T03:48:09;29.23;;;22.35;;
54428;SDS011;40337;52.978;6.310;2023-12-04T03:50:35;33.28;;;23.73;;
54428;SDS011;40337;52.978;6.310;2023-12-04T03:53:00;27.85;;;21.83;;
54428;SDS011;40337;52.978;6.310;2023-12-04T03:55:26;31.75;;;22.55;;
54428;SDS011;40337;52.978;6.310;2023-12-04T03:57:52;27.90;;;21.83;;
54428;SDS011;40337;52.978;6.310;2023-12-04T04:00:18;28.42;;;22.25;;
54428;SDS011;40337;52.978;6.310;2023-12-04T04:02:44;28.33;;;21.83;;
54428;SDS011;40337;52.978;6.310;2023-12-04T04:05:10;28.98;;;22.20;;
54428;SDS011;40337;52.978;6.310;2023-12-04T04:07:36;29.67;;;22.00;;
54428;SDS011;40337;52.978;6.310;2023-12-04T04:10:01;30.63;;;22.70;;
54428;SDS011;40337;52.978;6.310;2023-12-04T04:12:29;28.45;;;22.02;;
54428;SDS011;40337;52.978;6.310;2023-12-04T04:14:55;28.33;;;21.13;;
54428;SDS011;40337;52.978;6.310;2023-12-04T04:17:21;28.75;;;21.30;;
54428;SDS011;40337;52.978;6.310;2023-12-04T04:19:47;28.52;;;21.08;;
54428;SDS011;40337;52.978;6.310;2023-12-04T04:22:12;29.90;;;22.00;;
54428;SDS011;40337;52.978;6.310;2023-12-04T04:24:38;26.75;;;21.13;;
54428;SDS011;40337;52.978;6.310;2023-12-04T04:27:04;30.45;;;22.40;;
54428;SDS011;40337;52.978;6.310;2023-12-04T04:29:29;27.83;;;20.90;;
54428;SDS011;40337;52.978;6.310;2023-12-04T04:31:55;27.13;;;20.00;;
54428;SDS011;40337;52.978;6.310;2023-12-04T04:34:21;27.75;;;21.23;;
54428;SDS011;40337;52.978;6.310;2023-12-04T04:36:46;28.17;;;21.52;;
54428;SDS011;40337;52.978;6.310;2023-12-04T04:39:13;26.63;;;21.15;;
54428;SDS011;40337;52.978;6.310;2023-12-04T04:41:39;27.38;;;21.08;;
54428;SDS011;40337;52.978;6.310;2023-12-04T04:44:06;27.20;;;21.58;;
54428;SDS011;40337;52.978;6.310;2023-12-04T04:46:31;28.25;;;21.95;;
54428;SDS011;40337;52.978;6.310;2023-12-04T04:48:57;29.55;;;21.45;;
54428;SDS011;40337;52.978;6.310;2023-12-04T04:51:23;26.88;;;19.67;;
54428;SDS011;40337;52.978;6.310;2023-12-04T04:53:49;30.17;;;21.58;;
54428;SDS011;40337;52.978;6.310;2023-12-04T04:56:14;27.05;;;20.90;;
54428;SDS011;40337;52.978;6.310;2023-12-04T04:58:40;26.88;;;20.92;;
54428;SDS011;40337;52.978;6.310;2023-12-04T05:01:06;28.88;;;20.60;;
54428;SDS011;40337;52.978;6.310;2023-12-04T05:03:33;26.55;;;20.65;;
54428;SDS011;40337;52.978;6.310;2023-12-04T05:05:58;26.52;;;20.50;;
54428;SDS011;40337;52.978;6.310;2023-12-04T05:08:24;29.25;;;21.42;;
54428;SDS011;40337;52.978;6.310;2023-12-04T05:10:50;27.27;;;20.77;;
54428;SDS011;40337;52.978;6.310;2023-12-04T05:13:15;26.13;;;19.77;;
54428;SDS011;40337;52.978;6.310;2023-12-04T05:15:41;28.02;;;20.88;;
54428;SDS011;40337;52.978;6.310;2023-12-04T05:18:06;26.40;;;20.83;;
54428;SDS011;40337;52.978;6.310;2023-12-04T05:20:32;27.63;;;20.70;;
54428;SDS011;40337;52.978;6.310;2023-12-04T05:22:58;27.80;;;20.25;;
54428;SDS011;40337;52.978;6.310;2023-12-04T05:25:23;26.42;;;19.73;;
54428;SDS011;40337;52.978;6.310;2023-12-04T05:27:49;24.00;;;18.98;;
54428;SDS011;40337;52.978;6.310;2023-12-04T05:30:14;24.27;;;19.48;;
54428;SDS011;40337;52.978;6.310;2023-12-04T05:32:40;24.00;;;18.75;;
54428;SDS011;40337;52.978;6.310;2023-12-04T05:35:06;25.88;;;19.52;;
54428;SDS011;40337;52.978;6.310;2023-12-04T05:37:31;25.45;;;19.58;;
54428;SDS011;40337;52.978;6.310;2023-12-04T05:39:57;26.00;;;19.25;;
54428;SDS011;40337;52.978;6.310;2023-12-04T05:42:23;26.92;;;20.30;;
54428;SDS011;40337;52.978;6.310;2023-12-04T05:44:48;24.42;;;18.60;;
54428;SDS011;40337;52.978;6.310;2023-12-04T05:47:14;24.75;;;19.17;;
54428;SDS011;40337;52.978;6.310;2023-12-04T05:49:41;23.77;;;18.85;;
54428;SDS011;40337;52.978;6.310;2023-12-04T05:52:06;25.02;;;19.20;;
54428;SDS011;40337;52.978;6.310;2023-12-04T05:54:33;23.63;;;18.00;;
54428;SDS011;40337;52.978;6.310;2023-12-04T05:56:59;25.25;;;18.58;;
54428;SDS011;40337;52.978;6.310;2023-12-04T05:59:24;24.05;;;18.52;;
54428;SDS011;40337;52.978;6.310;2023-12-04T06:01:50;22.77;;;17.40;;
54428;SDS011;40337;52.978;6.310;2023-12-04T06:04:16;24.17;;;17.92;;
54428;SDS011;40337;52.978;6.310;2023-12-04T06:06:41;22.50;;;18.15;;
54428;SDS011;40337;52.978;6.310;2023-12-04T06:09:08;22.55;;;17.58;;
54428;SDS011;40337;52.978;6.310;2023-12-04T06:11:33;21.83;;;17.35;;
54428;SDS011;40337;52.978;6.310;2023-12-04T06:13:59;22.80;;;18.17;;
54428;SDS011;40337;52.978;6.310;2023-12-04T06:16:24;22.70;;;17.35;;
54428;SDS011;40337;52.978;6.310;2023-12-04T06:18:50;22.50;;;17.35;;
54428;SDS011;40337;52.978;6.310;2023-12-04T06:21:16;22.77;;;17.55;;
54428;SDS011;40337;52.978;6.310;2023-12-04T06:23:41;22.40;;;18.05;;
54428;SDS011;40337;52.978;6.310;2023-12-04T06:26:07;22.25;;;16.38;;
54428;SDS011;40337;52.978;6.310;2023-12-04T06:28:34;21.77;;;17.10;;
54428;SDS011;40337;52.978;6.310;2023-12-04T06:30:59;23.15;;;17.40;;
54428;SDS011;40337;52.978;6.310;2023-12-04T06:33:25;19.73;;;15.88;;
54428;SDS011;40337;52.978;6.310;2023-12-04T06:35:51;21.40;;;17.15;;
54428;SDS011;40337;52.978;6.310;2023-12-04T06:38:17;21.50;;;17.08;;
54428;SDS011;40337;52.978;6.310;2023-12-04T06:40:46;22.13;;;17.05;;
54428;SDS011;40337;52.978;6.310;2023-12-04T06:43:12;22.00;;;17.25;;
54428;SDS011;40337;52.978;6.310;2023-12-04T06:45:39;20.80;;;16.33;;
54428;SDS011;40337;52.978;6.310;2023-12-04T06:48:04;21.95;;;16.83;;
54428;SDS011;40337;52.978;6.310;2023-12-04T06:50:30;20.95;;;16.67;;
54428;SDS011;40337;52.978;6.310;2023-12-04T06:52:56;21.52;;;16.65;;
54428;SDS011;40337;52.978;6.310;2023-12-04T06:55:22;20.45;;;16.63;;
54428;SDS011;40337;52.978;6.310;2023-12-04T06:57:48;21.70;;;16.30;;
54428;SDS011;40337;52.978;6.310;2023-12-04T07:00:14;23.27;;;16.55;;
54428;SDS011;40337;52.978;6.310;2023-12-04T07:02:41;20.10;;;16.08;;
54428;SDS011;40337;52.978;6.310;2023-12-04T07:05:07;20.90;;;15.98;;
54428;SDS011;40337;52.978;6.310;2023-12-04T07:07:32;18.52;;;15.68;;
54428;SDS011;40337;52.978;6.310;2023-12-04T07:09:58;19.48;;;16.23;;
54428;SDS011;40337;52.978;6.310;2023-12-04T07:12:24;21.15;;;15.90;;
54428;SDS011;40337;52.978;6.310;2023-12-04T07:14:49;18.95;;;15.13;;
54428;SDS011;40337;52.978;6.310;2023-12-04T07:17:15;19.27;;;14.35;;
54428;SDS011;40337;52.978;6.310;2023-12-04T07:19:41;19.35;;;14.95;;
54428;SDS011;40337;52.978;6.310;2023-12-04T07:22:07;19.38;;;14.98;;
54428;SDS011;40337;52.978;6.310;2023-12-04T07:24:33;19.05;;;15.18;;
54428;SDS011;40337;52.978;6.310;2023-12-04T07:26:58;18.73;;;15.55;;
54428;SDS011;40337;52.978;6.310;2023-12-04T07:29:24;18.70;;;14.77;;
54428;SDS011;40337;52.978;6.310;2023-12-04T07:31:50;19.02;;;15.07;;
54428;SDS011;40337;52.978;6.310;2023-12-04T07:34:16;18.70;;;14.68;;
54428;SDS011;40337;52.978;6.310;2023-12-04T07:36:42;19.67;;;14.98;;
54428;SDS011;40337;52.978;6.310;2023-12-04T07:39:09;18.67;;;14.77;;
54428;SDS011;40337;52.978;6.310;2023-12-04T07:41:35;18.25;;;14.73;;
54428;SDS011;40337;52.978;6.310;2023-12-04T07:44:02;18.40;;;14.43;;
54428;SDS011;40337;52.978;6.310;2023-12-04T07:46:28;17.67;;;14.05;;
54428;SDS011;40337;52.978;6.310;2023-12-04T07:48:54;17.98;;;15.25;;
54428;SDS011;40337;52.978;6.310;2023-12-04T07:51:20;17.02;;;14.52;;
54428;SDS011;40337;52.978;6.310;2023-12-04T07:53:46;17.77;;;14.45;;
54428;SDS011;40337;52.978;6.310;2023-12-04T07:56:12;16.73;;;14.23;;
54428;SDS011;40337;52.978;6.310;2023-12-04T07:58:38;19.50;;;15.45;;
54428;SDS011;40337;52.978;6.310;2023-12-04T08:01:04;18.73;;;14.55;;
54428;SDS011;40337;52.978;6.310;2023-12-04T08:03:30;17.23;;;14.00;;
54428;SDS011;40337;52.978;6.310;2023-12-04T08:05:56;18.50;;;14.80;;
54428;SDS011;40337;52.978;6.310;2023-12-04T08:08:23;18.27;;;14.60;;
54428;SDS011;40337;52.978;6.310;2023-12-04T08:10:49;15.82;;;12.93;;
54428;SDS011;40337;52.978;6.310;2023-12-04T08:13:14;15.73;;;13.50;;
54428;SDS011;40337;52.978;6.310;2023-12-04T08:15:41;18.27;;;14.40;;
54428;SDS011;40337;52.978;6.310;2023-12-04T08:18:07;17.48;;;13.75;;
54428;SDS011;40337;52.978;6.310;2023-12-04T08:20:32;16.17;;;13.00;;
54428;SDS011;40337;52.978;6.310;2023-12-04T08:22:58;16.17;;;12.43;;
54428;SDS011;40337;52.978;6.310;2023-12-04T08:25:24;15.20;;;12.50;;
54428;SDS011;40337;52.978;6.310;2023-12-04T08:27:49;15.80;;;12.35;;
54428;SDS011;40337;52.978;6.310;2023-12-04T08:30:16;15.73;;;12.38;;
54428;SDS011;40337;52.978;6.310;2023-12-04T08:32:41;16.33;;;12.75;;
54428;SDS011;40337;52.978;6.310;2023-12-04T08:35:07;17.10;;;12.95;;
54428;SDS011;40337;52.978;6.310;2023-12-04T08:37:33;14.30;;;11.60;;
54428;SDS011;40337;52.978;6.310;2023-12-04T08:39:58;15.73;;;12.55;;
54428;SDS011;40337;52.978;6.310;2023-12-04T08:42:24;14.48;;;12.13;;
54428;SDS011;40337;52.978;6.310;2023-12-04T08:44:51;14.90;;;12.07;;
54428;SDS011;40337;52.978;6.310;2023-12-04T08:47:16;14.57;;;11.00;;
54428;SDS011;40337;52.978;6.310;2023-12-04T08:49:42;16.13;;;12.57;;
54428;SDS011;40337;52.978;6.310;2023-12-04T08:52:08;16.30;;;11.38;;
54428;SDS011;40337;52.978;6.310;2023-12-04T08:54:34;14.35;;;11.65;;
54428;SDS011;40337;52.978;6.310;2023-12-04T08:57:03;15.43;;;12.60;;
54428;SDS011;40337;52.978;6.310;2023-12-04T08:59:29;13.63;;;11.43;;
54428;SDS011;40337;52.978;6.310;2023-12-04T09:01:55;15.55;;;11.98;;
54428;SDS011;40337;52.978;6.310;2023-12-04T09:04:20;14.45;;;11.50;;
54428;SDS011;40337;52.978;6.310;2023-12-04T09:06:46;14.43;;;11.63;;
54428;SDS011;40337;52.978;6.310;2023-12-04T09:09:12;15.60;;;12.77;;
54428;SDS011;40337;52.978;6.310;2023-12-04T09:11:43;15.15;;;11.82;;
54428;SDS011;40337;52.978;6.310;2023-12-04T09:14:09;14.52;;;11.80;;
54428;SDS011;40337;52.978;6.310;2023-12-04T09:16:35;15.68;;;12.30;;
54428;SDS011;40337;52.978;6.310;2023-12-04T09:19:00;15.02;;;11.13;;
54428;SDS011;40337;52.978;6.310;2023-12-04T09:21:26;15.45;;;11.23;;
54428;SDS011;40337;52.978;6.310;2023-12-04T09:23:52;14.15;;;10.68;;
54428;SDS011;40337;52.978;6.310;2023-12-04T09:26:18;13.52;;;11.15;;
54428;SDS011;40337;52.978;6.310;2023-12-04T09:28:43;14.63;;;11.70;;
54428;SDS011;40337;52.978;6.310;2023-12-04T09:31:09;14.35;;;11.52;;
54428;SDS011;40337;52.978;6.310;2023-12-04T09:33:35;14.18;;;11.15;;
54428;SDS011;40337;52.978;6.310;2023-12-04T09:36:03;14.82;;;11.30;;
54428;SDS011;40337;52.978;6.310;2023-12-04T09:38:29;14.43;;;11.93;;
54428;SDS011;40337;52.978;6.310;2023-12-04T09:40:55;14.13;;;11.25;;
54428;SDS011;40337;52.978;6.310;2023-12-04T09:43:24;14.05;;;10.77;;
54428;SDS011;40337;52.978;6.310;2023-12-04T09:45:51;15.20;;;11.32;;
54428;SDS011;40337;52.978;6.310;2023-12-04T09:48:17;15.82;;;12.20;;
54428;SDS011;40337;52.978;6.310;2023-12-04T09:50:43;13.75;;;11.40;;
54428;SDS011;40337;52.978;6.310;2023-12-04T09:53:12;13.07;;;10.63;;
54428;SDS011;40337;52.978;6.310;2023-12-04T09:55:38;12.85;;;10.73;;
54428;SDS011;40337;52.978;6.310;2023-12-04T09:58:05;13.57;;;11.15;;
54428;SDS011;40337;52.978;6.310;2023-12-04T10:00:31;15.45;;;11.00;;
54428;SDS011;40337;52.978;6.310;2023-12-04T10:02:57;13.18;;;10.40;;
54428;SDS011;40337;52.978;6.310;2023-12-04T10:05:24;13.77;;;10.88;;
54428;SDS011;40337;52.978;6.310;2023-12-04T10:07:50;14.00;;;11.38;;
54428;SDS011;40337;52.978;6.310;2023-12-04T10:10:16;14.48;;;11.13;;
54428;SDS011;40337;52.978;6.310;2023-12-04T10:12:43;13.43;;;10.68;;
54428;SDS011;40337;52.978;6.310;2023-12-04T10:15:09;14.43;;;11.05;;
54428;SDS011;40337;52.978;6.310;2023-12-04T10:17:36;13.77;;;11.07;;
54428;SDS011;40337;52.978;6.310;2023-12-04T10:20:10;13.55;;;10.85;;
54428;SDS011;40337;52.978;6.310;2023-12-04T10:22:51;12.18;;;10.25;;
54428;SDS011;40337;52.978;6.310;2023-12-04T10:25:18;12.95;;;10.40;;
54428;SDS011;40337;52.978;6.310;2023-12-04T10:27:44;14.50;;;11.02;;
54428;SDS011;40337;52.978;6.310;2023-12-04T10:30:32;12.85;;;10.27;;
54428;SDS011;40337;52.978;6.310;2023-12-04T10:32:57;12.85;;;10.65;;
54428;SDS011;40337;52.978;6.310;2023-12-04T10:35:28;12.80;;;10.45;;
54428;SDS011;40337;52.978;6.310;2023-12-04T10:37:58;12.65;;;10.32;;
54428;SDS011;40337;52.978;6.310;2023-12-04T10:40:27;12.60;;;10.48;;
54428;SDS011;40337;52.978;6.310;2023-12-04T10:45:41;12.85;;;10.20;;
54428;SDS011;40337;52.978;6.310;2023-12-04T10:48:08;12.38;;;10.02;;
54428;SDS011;40337;52.978;6.310;2023-12-04T10:50:42;12.35;;;9.88;;
54428;SDS011;40337;52.978;6.310;2023-12-04T10:53:10;13.55;;;9.70;;
54428;SDS011;40337;52.978;6.310;2023-12-04T10:55:37;11.77;;;9.98;;
54428;SDS011;40337;52.978;6.310;2023-12-04T10:58:05;11.85;;;9.77;;
54428;SDS011;40337;52.978;6.310;2023-12-04T11:00:35;12.55;;;10.35;;
54428;SDS011;40337;52.978;6.310;2023-12-04T11:03:05;13.45;;;10.18;;
54428;SDS011;40337;52.978;6.310;2023-12-04T11:05:35;12.90;;;10.07;;
54428;SDS011;40337;52.978;6.310;2023-12-04T11:08:03;12.40;;;9.55;;
54428;SDS011;40337;52.978;6.310;2023-12-04T11:10:32;12.07;;;9.65;;
54428;SDS011;40337;52.978;6.310;2023-12-04T11:13:02;15.40;;;9.65;;
54428;SDS011;40337;52.978;6.310;2023-12-04T11:15:35;12.73;;;9.35;;
54428;SDS011;40337;52.978;6.310;2023-12-04T11:18:06;12.20;;;9.65;;
54428;SDS011;40337;52.978;6.310;2023-12-04T11:20:42;13.10;;;9.98;;
54428;SDS011;40337;52.978;6.310;2023-12-04T11:23:13;12.77;;;10.35;;
54428;SDS011;40337;52.978;6.310;2023-12-04T11:25:42;11.65;;;9.57;;
54428;SDS011;40337;52.978;6.310;2023-12-04T11:28:09;11.85;;;8.50;;
54428;SDS011;40337;52.978;6.310;2023-12-04T11:30:35;11.75;;;9.48;;
54428;SDS011;40337;52.978;6.310;2023-12-04T11:33:02;11.55;;;9.05;;
54428;SDS011;40337;52.978;6.310;2023-12-04T11:35:29;11.70;;;9.27;;
54428;SDS011;40337;52.978;6.310;2023-12-04T11:37:55;12.15;;;8.88;;
54428;SDS011;40337;52.978;6.310;2023-12-04T11:40:22;11.80;;;9.60;;
54428;SDS011;40337;52.978;6.310;2023-12-04T11:42:48;11.88;;;9.55;;
54428;SDS011;40337;52.978;6.310;2023-12-04T11:45:20;11.50;;;8.57;;
54428;SDS011;40337;52.978;6.310;2023-12-04T11:47:54;11.40;;;8.70;;
54428;SDS011;40337;52.978;6.310;2023-12-04T11:52:47;11.57;;;9.13;;
54428;SDS011;40337;52.978;6.310;2023-12-04T11:55:17;11.20;;;9.25;;
54428;SDS011;40337;52.978;6.310;2023-12-04T11:57:45;11.38;;;8.48;;
54428;SDS011;40337;52.978;6.310;2023-12-04T12:05:19;12.67;;;8.73;;
54428;SDS011;40337;52.978;6.310;2023-12-04T12:07:45;10.45;;;8.35;;
54428;SDS011;40337;52.978;6.310;2023-12-04T12:10:11;10.98;;;8.45;;
54428;SDS011;40337;52.978;6.310;2023-12-04T12:12:40;12.32;;;9.57;;
54428;SDS011;40337;52.978;6.310;2023-12-04T12:15:09;11.48;;;8.93;;
54428;SDS011;40337;52.978;6.310;2023-12-04T12:17:37;14.00;;;8.93;;
54428;SDS011;40337;52.978;6.310;2023-12-04T12:20:05;10.95;;;8.98;;
54428;SDS011;40337;52.978;6.310;2023-12-04T12:22:34;11.25;;;8.68;;
54428;SDS011;40337;52.978;6.310;2023-12-04T12:25:03;10.55;;;9.18;;
54428;SDS011;40337;52.978;6.310;2023-12-04T12:27:30;11.20;;;8.15;;
54428;SDS011;40337;52.978;6.310;2023-12-04T12:29:55;11.73;;;9.00;;
54428;SDS011;40337;52.978;6.310;2023-12-04T12:32:21;10.95;;;8.77;;
54428;SDS011;40337;52.978;6.310;2023-12-04T12:34:47;10.85;;;8.40;;
54428;SDS011;40337;52.978;6.310;2023-12-04T12:37:12;11.30;;;9.10;;
54428;SDS011;40337;52.978;6.310;2023-12-04T12:39:38;11.93;;;8.50;;
54428;SDS011;40337;52.978;6.310;2023-12-04T12:42:05;10.23;;;8.32;;
54428;SDS011;40337;52.978;6.310;2023-12-04T12:44:40;10.50;;;8.43;;
54428;SDS011;40337;52.978;6.310;2023-12-04T12:47:07;11.68;;;8.40;;
54428;SDS011;40337;52.978;6.310;2023-12-04T12:49:33;11.57;;;8.32;;
54428;SDS011;40337;52.978;6.310;2023-12-04T12:52:00;10.27;;;8.65;;
54428;SDS011;40337;52.978;6.310;2023-12-04T12:54:26;11.07;;;8.60;;
54428;SDS011;40337;52.978;6.310;2023-12-04T12:56:52;15.38;;;8.95;;
54428;SDS011;40337;52.978;6.310;2023-12-04T12:59:18;11.18;;;8.45;;
54428;SDS011;40337;52.978;6.310;2023-12-04T13:01:43;10.10;;;8.30;;
54428;SDS011;40337;52.978;6.310;2023-12-04T13:04:13;10.35;;;7.93;;
54428;SDS011;40337;52.978;6.310;2023-12-04T13:06:40;18.40;;;9.27;;
54428;SDS011;40337;52.978;6.310;2023-12-04T13:09:06;9.20;;;7.93;;
54428;SDS011;40337;52.978;6.310;2023-12-04T13:11:32;10.43;;;7.93;;
54428;SDS011;40337;52.978;6.310;2023-12-04T13:13:58;9.65;;;7.78;;
54428;SDS011;40337;52.978;6.310;2023-12-04T13:16:24;10.90;;;8.23;;
54428;SDS011;40337;52.978;6.310;2023-12-04T13:18:49;10.63;;;8.88;;
54428;SDS011;40337;52.978;6.310;2023-12-04T13:21:15;9.63;;;7.97;;
54428;SDS011;40337;52.978;6.310;2023-12-04T13:23:41;9.73;;;7.68;;
54428;SDS011;40337;52.978;6.310;2023-12-04T13:26:07;10.88;;;8.48;;
54428;SDS011;40337;52.978;6.310;2023-12-04T13:28:35;10.20;;;8.35;;
54428;SDS011;40337;52.978;6.310;2023-12-04T13:31:03;10.70;;;8.55;;
54428;SDS011;40337;52.978;6.310;2023-12-04T13:33:29;10.57;;;8.48;;
54428;SDS011;40337;52.978;6.310;2023-12-04T13:35:55;10.23;;;8.10;;
54428;SDS011;40337;52.978;6.310;2023-12-04T13:38:21;10.40;;;7.68;;
54428;SDS011;40337;52.978;6.310;2023-12-04T13:40:46;11.50;;;8.55;;
54428;SDS011;40337;52.978;6.310;2023-12-04T13:43:25;10.82;;;8.82;;
54428;SDS011;40337;52.978;6.310;2023-12-04T13:48:35;9.77;;;7.97;;
54428;SDS011;40337;52.978;6.310;2023-12-04T13:51:05;12.35;;;8.60;;
54428;SDS011;40337;52.978;6.310;2023-12-04T13:53:34;11.70;;;9.05;;
54428;SDS011;40337;52.978;6.310;2023-12-04T13:56:00;11.20;;;8.73;;
54428;SDS011;40337;52.978;6.310;2023-12-04T13:58:25;11.15;;;8.50;;
54428;SDS011;40337;52.978;6.310;2023-12-04T14:01:06;10.88;;;8.45;;
54428;SDS011;40337;52.978;6.310;2023-12-04T14:03:47;10.57;;;8.75;;
54428;SDS011;40337;52.978;6.310;2023-12-04T14:06:13;11.20;;;8.90;;
54428;SDS011;40337;52.978;6.310;2023-12-04T14:08:40;11.18;;;8.90;;
54428;SDS011;40337;52.978;6.310;2023-12-04T14:11:06;11.57;;;8.65;;
54428;SDS011;40337;52.978;6.310;2023-12-04T14:13:32;11.90;;;9.15;;
54428;SDS011;40337;52.978;6.310;2023-12-04T14:15:58;10.75;;;8.10;;
54428;SDS011;40337;52.978;6.310;2023-12-04T14:18:24;11.02;;;8.98;;
54428;SDS011;40337;52.978;6.310;2023-12-04T14:20:50;10.52;;;8.98;;
54428;SDS011;40337;52.978;6.310;2023-12-04T14:23:17;10.85;;;8.38;;
54428;SDS011;40337;52.978;6.310;2023-12-04T14:25:44;10.65;;;8.45;;
54428;SDS011;40337;52.978;6.310;2023-12-04T14:28:10;11.27;;;8.40;;
54428;SDS011;40337;52.978;6.310;2023-12-04T14:30:37;11.57;;;9.38;;
54428;SDS011;40337;52.978;6.310;2023-12-04T14:33:02;12.45;;;9.20;;
54428;SDS011;40337;52.978;6.310;2023-12-04T14:35:28;9.93;;;8.43;;